createdAt,value
2019-04-04T00:02:26.726Z,3.63
2019-04-04T00:04:59.714Z,3.87
2019-04-04T00:07:31.096Z,3.80
2019-04-04T00:10:02.129Z,3.27
2019-04-04T00:12:34.043Z,3.97
2019-04-04T00:15:04.798Z,3.57
2019-04-04T00:17:35.699Z,3.73
2019-04-04T00:20:07.035Z,3.47
2019-04-04T00:22:37.819Z,3.27
2019-04-04T00:25:10.462Z,3.33
2019-04-04T00:27:42.049Z,3.43
2019-04-04T00:30:13.286Z,3.57
2019-04-04T00:32:44.069Z,5.50
2019-04-04T00:35:14.812Z,4.23
2019-04-04T00:37:45.524Z,4.17
2019-04-04T00:40:16.101Z,4.83
2019-04-04T00:42:47.858Z,3.87
2019-04-04T00:45:19.199Z,3.83
2019-04-04T00:47:50.342Z,3.90
2019-04-04T00:50:21.029Z,4.03
2019-04-04T00:52:51.776Z,3.93
2019-04-04T00:55:23.611Z,5.07
2019-04-04T00:57:54.182Z,3.93
2019-04-04T01:00:24.978Z,4.30
2019-04-04T01:02:58.280Z,4.83
2019-04-04T01:05:30.145Z,9.23
2019-04-04T01:08:01.727Z,4.03
2019-04-04T01:10:32.395Z,4.40
2019-04-04T01:13:03.116Z,4.13
2019-04-04T01:15:33.894Z,4.37
2019-04-04T01:18:06.050Z,5.20
2019-04-04T01:20:37.493Z,5.63
2019-04-04T01:23:09.255Z,5.30
2019-04-04T01:25:39.893Z,6.03
2019-04-04T01:28:10.797Z,4.97
2019-04-04T01:30:41.714Z,5.83
2019-04-04T01:33:14.015Z,7.13
2019-04-04T01:35:44.739Z,7.67
2019-04-04T01:38:15.750Z,5.33
2019-04-04T01:40:46.442Z,5.80
2019-04-04T01:43:17.058Z,6.67
2019-04-04T01:45:49.056Z,5.63
2019-04-04T01:48:19.679Z,6.23
2019-04-04T01:50:53.442Z,8.43
2019-04-04T01:53:23.326Z,5.83
2019-04-04T01:55:54.336Z,6.03
2019-04-04T01:58:25.164Z,8.10
2019-04-04T02:00:55.803Z,5.90
2019-04-04T02:03:26.528Z,5.60
2019-04-04T02:05:58.266Z,9.57
2019-04-04T02:08:31.297Z,10.30
2019-04-04T02:11:01.790Z,8.47
2019-04-04T02:13:32.313Z,6.23
2019-04-04T02:16:03.024Z,12.43
2019-04-04T02:18:33.638Z,5.90
2019-04-04T02:21:04.249Z,7.20
2019-04-04T02:23:34.897Z,6.57
2019-04-04T02:26:05.834Z,6.93
2019-04-04T02:28:37.984Z,6.53
2019-04-04T02:31:10.802Z,8.90
2019-04-04T02:33:41.477Z,6.87
2019-04-04T02:36:16.333Z,7.93
2019-04-04T02:39:02.389Z,6.53
2019-04-04T02:41:34.142Z,9.30
2019-04-04T02:44:04.967Z,10.10
2019-04-04T02:46:35.614Z,7.57
2019-04-04T02:49:06.491Z,6.90
2019-04-04T02:51:40.152Z,10.57
2019-04-04T02:54:09.287Z,7.63
2019-04-04T02:56:40.110Z,8.27
2019-04-04T02:59:10.751Z,7.43
2019-04-04T03:01:41.471Z,7.33
2019-04-04T03:04:13.896Z,9.07
2019-04-04T03:06:45.568Z,8.30
2019-04-04T03:09:16.256Z,11.83
2019-04-04T03:11:47.311Z,8.00
2019-04-04T03:14:18.102Z,8.63
2019-04-04T03:16:48.926Z,9.10
2019-04-04T03:19:19.784Z,8.30
2019-04-04T03:21:54.768Z,10.37
2019-04-04T03:24:23.153Z,8.17
2019-04-04T03:26:53.807Z,9.70
2019-04-04T03:29:24.763Z,16.87
2019-04-04T03:31:55.537Z,10.20
2019-04-04T03:34:26.245Z,10.87
2019-04-04T03:36:56.957Z,8.67
2019-04-04T03:39:28.598Z,10.83
2019-04-04T03:41:59.247Z,9.10
2019-04-04T03:44:30.091Z,9.63
2019-04-04T03:47:00.891Z,9.33
2019-04-04T03:49:31.459Z,10.13
2019-04-04T03:52:02.237Z,9.17
2019-04-04T03:54:32.940Z,8.37
2019-04-04T03:57:03.502Z,22.07
2019-04-04T03:59:34.544Z,12.10
2019-04-04T04:02:05.467Z,13.83
2019-04-04T04:04:36.073Z,9.97
2019-04-04T04:07:06.676Z,11.60
2019-04-04T04:09:37.402Z,16.00
2019-04-04T04:12:11.211Z,12.43
2019-04-04T04:14:40.471Z,13.13
2019-04-04T04:17:11.655Z,12.43
2019-04-04T04:19:43.254Z,12.53
2019-04-04T04:22:18.246Z,13.53
2019-04-04T04:24:46.574Z,9.57
2019-04-04T04:27:17.245Z,10.13
2019-04-04T04:29:47.861Z,13.07
2019-04-04T04:32:21.377Z,13.87
2019-04-04T04:34:50.963Z,10.80
2019-04-04T04:37:21.773Z,11.27
2019-04-04T04:39:52.668Z,12.50
2019-04-04T04:42:26.168Z,10.90
2019-04-04T04:44:55.836Z,12.00
2019-04-04T04:47:26.995Z,12.27
2019-04-04T04:49:57.582Z,10.23
2019-04-04T04:52:28.667Z,12.63
2019-04-04T04:54:59.333Z,11.17
2019-04-04T04:57:30.396Z,13.63
2019-04-04T05:00:01.255Z,12.77
2019-04-04T05:02:32.290Z,13.90
2019-04-04T05:05:03.155Z,10.93
2019-04-04T05:07:34.967Z,14.30
2019-04-04T05:10:08.053Z,12.70
2019-04-04T05:12:38.812Z,10.87
2019-04-04T05:15:10.413Z,12.73
2019-04-04T05:17:42.087Z,14.10
2019-04-04T05:20:13.659Z,13.60
2019-04-04T05:22:45.445Z,13.77
2019-04-04T05:25:16.165Z,15.70
2019-04-04T05:27:46.868Z,11.63
2019-04-04T05:30:20.237Z,13.60
2019-04-04T05:32:52.078Z,15.13
2019-04-04T05:35:22.317Z,11.13
2019-04-04T05:37:53.002Z,12.13
2019-04-04T05:40:24.277Z,17.37
2019-04-04T05:42:55.119Z,16.10
2019-04-04T05:45:25.719Z,13.37
2019-04-04T05:47:59.641Z,13.83
2019-04-04T05:50:28.882Z,14.30
2019-04-04T05:52:59.503Z,17.93
2019-04-04T05:55:30.193Z,13.40
2019-04-04T05:58:00.947Z,16.53
2019-04-04T06:00:31.778Z,17.07
2019-04-04T06:03:02.638Z,15.17
2019-04-04T06:05:33.424Z,20.47
2019-04-04T06:08:04.107Z,13.50
2019-04-04T06:10:34.811Z,15.67
2019-04-04T06:13:05.574Z,14.97
2019-04-04T06:15:36.232Z,16.77
2019-04-04T06:18:06.898Z,16.53
2019-04-04T06:20:37.678Z,15.97
2019-04-04T06:23:08.415Z,19.53
2019-04-04T06:25:40.457Z,13.03
2019-04-04T06:28:12.013Z,19.17
2019-04-04T06:30:43.962Z,16.60
2019-04-04T06:33:15.090Z,15.43
2019-04-04T06:35:47.862Z,21.57
2019-04-04T06:38:18.216Z,18.00
2019-04-04T06:40:48.952Z,16.17
2019-04-04T06:43:20.203Z,16.07
2019-04-04T06:45:51.197Z,16.57
2019-04-04T06:48:21.891Z,18.07
2019-04-04T06:50:52.556Z,16.70
2019-04-04T06:53:23.318Z,19.10
2019-04-04T06:55:53.904Z,15.00
2019-04-04T06:58:24.608Z,15.43
2019-04-04T07:00:55.289Z,14.40
2019-04-04T07:03:27.842Z,18.90
2019-04-04T07:05:58.336Z,12.05
2019-04-04T07:08:29.329Z,13.45
2019-04-04T07:11:02.768Z,10.32
2019-04-04T07:13:42.086Z,13.62
2019-04-04T07:16:07.836Z,11.97
2019-04-04T07:18:37.860Z,14.18
2019-04-04T07:21:09.479Z,12.95
2019-04-04T07:23:41.809Z,16.48
2019-04-04T07:26:14.954Z,11.65
2019-04-04T07:28:45.927Z,12.23
2019-04-04T07:31:17.066Z,11.93
2019-04-04T07:33:48.387Z,9.93
2019-04-04T07:36:20.194Z,10.10
2019-04-04T07:38:51.982Z,10.85
2019-04-04T07:41:22.861Z,13.58
2019-04-04T07:43:53.718Z,13.48
2019-04-04T07:46:24.980Z,10.68
2019-04-04T07:48:56.670Z,9.23
2019-04-04T07:51:28.134Z,13.38
2019-04-04T07:54:00.000Z,11.20
2019-04-04T07:56:30.594Z,9.03
2019-04-04T07:59:01.340Z,10.38
2019-04-04T08:01:32.137Z,11.57
2019-04-04T08:04:02.711Z,14.07
2019-04-04T08:06:33.858Z,11.30
2019-04-04T08:09:06.254Z,12.73
2019-04-04T08:11:37.561Z,13.30
2019-04-04T08:14:08.187Z,10.13
2019-04-04T08:16:39.949Z,8.53
2019-04-04T08:19:10.537Z,9.18
2019-04-04T08:21:42.175Z,9.83
2019-04-04T08:24:12.799Z,8.98
2019-04-04T08:26:43.422Z,13.85
2019-04-04T08:29:14.135Z,8.73
2019-04-04T08:31:44.752Z,9.13
2019-04-04T08:34:15.418Z,8.60
2019-04-04T08:36:46.095Z,9.63
2019-04-04T08:39:16.969Z,9.45
2019-04-04T08:41:47.558Z,10.43
2019-04-04T08:44:18.297Z,9.93
2019-04-04T08:46:48.951Z,13.70
2019-04-04T08:49:19.671Z,11.05
2019-04-04T08:51:50.333Z,9.78
2019-04-04T08:54:21.059Z,9.05
2019-04-04T08:56:51.985Z,12.58
2019-04-04T08:59:22.576Z,10.30
2019-04-04T09:01:53.294Z,10.53
2019-04-04T09:04:24.321Z,14.47
2019-04-04T09:06:55.125Z,17.23
2019-04-04T09:09:25.827Z,9.80
2019-04-04T09:11:56.630Z,10.90
2019-04-04T09:14:27.440Z,9.40
2019-04-04T09:16:58.469Z,12.90
2019-04-04T09:19:29.199Z,10.35
2019-04-04T09:21:59.854Z,14.43
2019-04-04T09:24:30.535Z,11.65
2019-04-04T09:27:02.329Z,9.63
2019-04-04T09:29:32.965Z,10.13
2019-04-04T09:32:03.529Z,11.57
2019-04-04T09:34:34.164Z,13.38
2019-04-04T09:37:08.487Z,10.40
2019-04-04T09:39:37.905Z,15.80
2019-04-04T09:42:08.987Z,12.73
2019-04-04T09:44:39.755Z,12.00
2019-04-04T09:47:10.469Z,10.05
2019-04-04T09:49:41.150Z,11.63
2019-04-04T09:52:12.030Z,9.08
2019-04-04T09:54:43.330Z,11.48
2019-04-04T09:57:14.112Z,10.63
2019-04-04T09:59:45.123Z,11.03
2019-04-04T10:02:15.798Z,19.70
2019-04-04T10:04:46.433Z,12.03
2019-04-04T10:07:17.079Z,12.00
2019-04-04T10:09:48.262Z,16.30
2019-04-04T10:12:19.174Z,14.65
2019-04-04T10:14:49.913Z,12.40
2019-04-04T10:17:20.573Z,10.30
2019-04-04T10:19:51.136Z,10.95
2019-04-04T10:22:22.038Z,13.20
2019-04-04T10:24:52.633Z,11.57
2019-04-04T10:27:23.267Z,12.10
2019-04-04T10:29:53.951Z,11.80
2019-04-04T10:32:24.561Z,10.58
2019-04-04T10:34:55.181Z,10.75
2019-04-04T10:37:25.845Z,13.35
2019-04-04T10:39:56.387Z,17.80
2019-04-04T10:42:26.996Z,12.15
2019-04-04T10:44:57.674Z,13.35
2019-04-04T10:47:28.403Z,11.60
2019-04-04T10:49:59.071Z,11.05
2019-04-04T10:52:29.747Z,15.20
2019-04-04T10:55:01.629Z,11.45
2019-04-04T10:57:33.535Z,11.97
2019-04-04T11:00:06.274Z,12.85
2019-04-04T11:02:37.091Z,14.78
2019-04-04T11:05:07.883Z,13.03
2019-04-04T11:07:38.683Z,14.05
2019-04-04T11:10:09.470Z,17.65
2019-04-04T11:12:40.142Z,13.35
2019-04-04T11:15:10.889Z,16.27
2019-04-04T11:17:41.508Z,17.15
2019-04-04T11:20:12.113Z,15.70
2019-04-04T11:22:42.807Z,17.67
2019-04-04T11:25:13.664Z,15.60
2019-04-04T11:27:44.359Z,13.88
2019-04-04T11:30:15.795Z,12.93
2019-04-04T11:32:48.848Z,12.35
2019-04-04T11:35:18.829Z,12.93
2019-04-04T11:37:49.628Z,13.85
2019-04-04T11:40:20.214Z,14.38
2019-04-04T11:42:50.784Z,16.52
2019-04-04T11:45:21.455Z,13.40
2019-04-04T11:47:52.069Z,17.48
2019-04-04T11:50:23.107Z,12.98
2019-04-04T11:52:53.787Z,13.78
2019-04-04T11:55:24.463Z,13.72
2019-04-04T11:57:55.087Z,14.38
2019-04-04T12:00:34.439Z,14.63
2019-04-04T12:03:05.653Z,15.85
2019-04-04T12:05:36.367Z,13.75
2019-04-04T12:08:06.949Z,14.68
2019-04-04T12:10:37.613Z,18.45
2019-04-04T12:13:08.608Z,16.17
2019-04-04T12:15:39.342Z,21.27
2019-04-04T12:18:09.992Z,19.07
2019-04-04T12:20:43.119Z,17.90
2019-04-04T12:23:13.046Z,20.68
2019-04-04T12:25:43.631Z,17.17
2019-04-04T12:28:15.636Z,20.48
2019-04-04T12:30:46.357Z,13.88
2019-04-04T12:33:16.941Z,14.28
2019-04-04T12:35:47.635Z,14.03
2019-04-04T12:38:18.367Z,14.83
2019-04-04T12:40:48.975Z,15.03
2019-04-04T12:43:19.647Z,17.77
2019-04-04T12:45:50.715Z,14.45
2019-04-04T12:48:21.421Z,16.12
2019-04-04T12:50:52.077Z,13.95
2019-04-04T12:53:22.751Z,17.85
2019-04-04T12:55:54.323Z,17.75
2019-04-04T12:58:25.502Z,14.95
2019-04-04T13:00:56.624Z,20.97
2019-04-04T13:03:27.392Z,18.50
2019-04-04T13:05:58.084Z,18.45
2019-04-04T13:08:30.566Z,21.27
2019-04-04T13:11:01.153Z,17.77
2019-04-04T13:13:31.880Z,15.83
2019-04-04T13:16:02.486Z,18.77
2019-04-04T13:18:33.245Z,13.48
2019-04-04T13:21:04.039Z,13.25
2019-04-04T13:23:34.719Z,23.40
2019-04-04T13:26:05.474Z,22.00
2019-04-04T13:28:36.085Z,14.80
2019-04-04T13:31:06.818Z,16.25
2019-04-04T13:33:38.669Z,19.20
2019-04-04T13:36:09.388Z,17.95
2019-04-04T13:38:40.104Z,15.50
2019-04-04T13:41:21.259Z,14.95
2019-04-04T13:43:43.084Z,14.78
2019-04-04T13:46:14.056Z,10.60
2019-04-04T13:48:44.709Z,14.50
2019-04-04T13:51:15.638Z,14.53
2019-04-04T13:53:46.299Z,13.60
2019-04-04T13:56:29.217Z,13.98
2019-04-04T13:59:02.063Z,13.55
2019-04-04T14:01:32.075Z,12.35
2019-04-04T14:04:02.687Z,13.60
2019-04-04T14:06:33.310Z,12.85
2019-04-04T14:09:05.830Z,12.30
2019-04-04T14:11:36.544Z,13.10
2019-04-04T14:14:07.969Z,13.53
2019-04-04T14:16:38.825Z,12.25
2019-04-04T14:19:09.415Z,11.33
2019-04-04T14:21:39.999Z,10.53
2019-04-04T14:24:29.774Z,11.68
2019-04-04T14:27:00.806Z,13.30
2019-04-04T14:29:31.504Z,13.53
2019-04-04T14:32:02.415Z,12.67
2019-04-04T14:34:33.037Z,11.83
2019-04-04T14:37:03.606Z,13.07
2019-04-04T14:39:34.151Z,16.17
2019-04-04T14:42:04.796Z,23.87
2019-04-04T14:44:36.191Z,12.07
2019-04-04T14:47:06.929Z,13.33
2019-04-04T14:49:37.726Z,10.50
2019-04-04T14:52:08.361Z,11.37
2019-04-04T14:54:39.539Z,12.70
2019-04-04T14:57:10.669Z,10.13
2019-04-04T14:59:41.700Z,12.23
2019-04-04T15:02:12.343Z,13.13
2019-04-04T15:04:42.969Z,11.10
2019-04-04T15:07:13.601Z,11.67
2019-04-04T15:09:44.268Z,10.60
2019-04-04T15:12:15.138Z,9.80
2019-04-04T15:14:45.999Z,10.23
2019-04-04T15:17:16.613Z,14.47
2019-04-04T15:19:48.628Z,13.77
2019-04-04T15:22:19.300Z,13.00
2019-04-04T15:24:49.923Z,10.90
2019-04-04T15:27:20.977Z,10.70
2019-04-04T15:29:51.700Z,9.03
2019-04-04T15:32:22.264Z,8.63
2019-04-04T15:34:52.895Z,12.43
2019-04-04T15:37:23.464Z,10.83
2019-04-04T15:39:54.143Z,11.87
2019-04-04T15:42:25.087Z,11.10
2019-04-04T15:44:56.020Z,14.40
2019-04-04T15:47:26.666Z,10.17
2019-04-04T15:49:57.313Z,12.17
2019-04-04T15:52:28.010Z,11.07
2019-04-04T15:54:58.587Z,11.43
2019-04-04T15:57:29.452Z,11.60
2019-04-04T16:00:00.111Z,12.33
2019-04-04T16:02:31.189Z,16.17
2019-04-04T16:05:01.880Z,14.80
2019-04-04T16:07:32.621Z,12.63
2019-04-04T16:10:03.311Z,14.23
2019-04-04T16:12:34.395Z,13.20
2019-04-04T16:15:05.327Z,15.70
2019-04-04T16:17:36.359Z,11.27
2019-04-04T16:20:07.747Z,17.93
2019-04-04T16:22:38.445Z,16.67
2019-04-04T16:25:09.128Z,14.47
2019-04-04T16:27:39.823Z,14.53
2019-04-04T16:30:11.206Z,13.40
2019-04-04T16:32:41.829Z,11.77
2019-04-04T16:35:12.754Z,9.67
2019-04-04T16:37:43.507Z,14.50
2019-04-04T16:40:14.533Z,11.50
2019-04-04T16:42:45.991Z,13.50
2019-04-04T16:45:16.717Z,12.43
2019-04-04T16:47:47.416Z,13.03
2019-04-04T16:50:19.041Z,13.57
2019-04-04T16:52:49.856Z,9.20
2019-04-04T16:55:20.411Z,8.07
2019-04-04T16:57:51.627Z,7.60
2019-04-04T17:00:22.711Z,8.87
2019-04-04T17:02:53.625Z,8.53
2019-04-04T17:05:24.287Z,8.57
2019-04-04T17:07:54.955Z,7.00
2019-04-04T17:10:27.955Z,14.80
2019-04-04T17:12:59.283Z,8.20
2019-04-04T17:15:30.023Z,10.50
2019-04-04T17:18:01.143Z,8.60
2019-04-04T17:20:32.519Z,4.87
2019-04-04T17:23:03.211Z,7.93
2019-04-04T17:25:34.131Z,6.93
2019-04-04T17:28:04.802Z,8.00
2019-04-04T17:30:35.850Z,8.37
2019-04-04T17:33:06.987Z,5.97
2019-04-04T17:35:38.856Z,6.03
2019-04-04T17:38:10.071Z,6.17
2019-04-04T17:40:41.107Z,7.87
2019-04-04T17:43:11.880Z,7.07
2019-04-04T17:45:42.727Z,7.27
2019-04-04T17:48:13.985Z,6.00
2019-04-04T17:50:44.921Z,5.20
2019-04-04T17:53:16.954Z,7.07
2019-04-04T17:55:48.689Z,6.63
2019-04-04T17:58:19.572Z,5.33
2019-04-04T18:00:50.487Z,6.23
2019-04-04T18:03:21.106Z,9.23
2019-04-04T18:05:51.779Z,6.40
2019-04-04T18:08:22.399Z,5.17
2019-04-04T18:10:53.047Z,9.37
2019-04-04T18:13:23.697Z,5.43
2019-04-04T18:15:54.454Z,4.77
2019-04-04T18:18:25.026Z,4.50
2019-04-04T18:20:55.610Z,4.93
2019-04-04T18:23:26.761Z,4.50
2019-04-04T18:25:57.804Z,5.23
2019-04-04T18:28:28.515Z,5.00
2019-04-04T18:30:59.100Z,5.33
2019-04-04T18:33:29.660Z,4.70
2019-04-04T18:36:00.402Z,6.13
2019-04-04T18:38:31.079Z,6.17
2019-04-04T18:41:02.052Z,3.97
2019-04-04T18:43:32.659Z,3.73
2019-04-04T18:46:04.338Z,5.93
2019-04-04T18:48:35.166Z,4.77
2019-04-04T18:51:05.953Z,5.93
2019-04-04T18:53:36.792Z,5.67
2019-04-04T18:56:07.451Z,5.60
2019-04-04T18:58:40.134Z,7.23
2019-04-04T19:01:10.835Z,6.37
2019-04-04T19:03:41.473Z,6.10
2019-04-04T19:06:12.415Z,6.93
2019-04-04T19:08:43.058Z,5.87
2019-04-04T19:11:13.737Z,8.17
2019-04-04T19:13:44.831Z,7.07
2019-04-04T19:16:15.683Z,7.93
2019-04-04T19:18:46.396Z,8.20
2019-04-04T19:21:17.084Z,12.17
2019-04-04T19:23:49.573Z,10.93
2019-04-04T19:26:20.090Z,9.13
2019-04-04T19:28:50.904Z,12.40
2019-04-04T19:31:21.638Z,8.50
2019-04-04T19:33:52.302Z,11.10
2019-04-04T19:36:23.035Z,10.40
2019-04-04T19:38:53.737Z,9.03
2019-04-04T19:41:24.443Z,9.27
2019-04-04T19:43:55.222Z,9.80
2019-04-04T19:46:37.029Z,9.67
2019-04-04T19:49:03.089Z,11.43
2019-04-04T19:51:33.781Z,11.67
2019-04-04T19:54:04.342Z,13.93
2019-04-04T19:56:35.155Z,12.97
2019-04-04T19:59:05.795Z,15.17
2019-04-04T20:01:37.458Z,11.70
2019-04-04T20:04:08.164Z,11.33
2019-04-04T20:06:38.880Z,15.73
2019-04-04T20:09:09.555Z,14.63
2019-04-04T20:11:40.250Z,13.50
2019-04-04T20:14:10.785Z,12.37
2019-04-04T20:16:41.928Z,14.20
2019-04-04T20:19:12.485Z,16.10
2019-04-04T20:21:43.405Z,14.93
2019-04-04T20:24:14.494Z,14.80
2019-04-04T20:26:45.434Z,14.43
2019-04-04T20:29:15.968Z,16.17
2019-04-04T20:31:47.585Z,14.27
2019-04-04T20:34:18.551Z,15.97
2019-04-04T20:36:49.224Z,13.27
2019-04-04T20:39:20.034Z,13.50
2019-04-04T20:41:50.765Z,16.00
2019-04-04T20:44:21.329Z,18.33
2019-04-04T20:46:51.918Z,16.50
2019-04-04T20:49:22.527Z,19.97
2019-04-04T20:51:53.294Z,16.63
2019-04-04T20:54:23.868Z,15.30
2019-04-04T20:56:54.402Z,19.10
2019-04-04T20:59:27.859Z,13.53
2019-04-04T21:01:57.371Z,16.57
2019-04-04T21:04:28.521Z,13.30
2019-04-04T21:06:59.053Z,18.57
2019-04-04T21:09:30.655Z,13.50
2019-04-04T21:12:01.359Z,17.50
2019-04-04T21:14:32.107Z,11.83
2019-04-04T21:17:02.766Z,13.27
2019-04-04T21:19:33.397Z,20.63
2019-04-04T21:22:04.105Z,17.13
2019-04-04T21:24:35.054Z,14.93
2019-04-04T21:27:05.889Z,14.37
2019-04-04T21:29:36.420Z,13.37
2019-04-04T21:32:07.483Z,14.63
2019-04-04T21:34:38.046Z,12.53
2019-04-04T21:37:08.631Z,16.70
2019-04-04T21:39:39.338Z,12.67
2019-04-04T21:42:09.966Z,14.40
2019-04-04T21:44:40.634Z,15.73
2019-04-04T21:47:11.512Z,11.20
2019-04-04T21:49:42.146Z,13.10
2019-04-04T21:52:12.818Z,14.17
2019-04-04T21:54:43.451Z,13.87
2019-04-04T21:57:14.048Z,12.83
2019-04-04T21:59:45.436Z,10.43
2019-04-04T22:02:16.372Z,11.17
2019-04-04T22:04:47.066Z,13.33
2019-04-04T22:07:17.698Z,11.50
2019-04-04T22:09:48.693Z,11.40
2019-04-04T22:12:19.821Z,16.20
2019-04-04T22:14:50.516Z,13.30
2019-04-04T22:17:22.113Z,15.63
2019-04-04T22:19:54.512Z,12.17
2019-04-04T22:22:25.088Z,13.20
2019-04-04T22:24:55.769Z,12.33
2019-04-04T22:27:26.844Z,14.60
2019-04-04T22:29:57.647Z,12.03
2019-04-04T22:32:28.654Z,10.83
2019-04-04T22:34:59.191Z,18.53
2019-04-04T22:37:29.736Z,13.10
2019-04-04T22:40:00.282Z,12.67
2019-04-04T22:42:38.470Z,16.17
2019-04-04T22:45:09.475Z,17.20
2019-04-04T22:47:40.311Z,11.57
2019-04-04T22:50:11.685Z,15.77
2019-04-04T22:52:42.598Z,10.07
2019-04-04T22:55:14.611Z,15.13
2019-04-04T22:57:45.865Z,14.83
2019-04-04T23:00:18.254Z,14.07
2019-04-04T23:02:49.169Z,12.10
2019-04-04T23:05:20.079Z,15.67
2019-04-04T23:07:50.907Z,13.27
2019-04-04T23:10:21.865Z,15.60
2019-04-04T23:12:53.117Z,12.70
2019-04-04T23:15:24.022Z,12.53
2019-04-04T23:17:54.910Z,17.20
2019-04-04T23:20:25.764Z,10.90
2019-04-04T23:22:56.659Z,14.37
2019-04-04T23:25:27.525Z,16.73
2019-04-04T23:27:58.747Z,14.87
2019-04-04T23:30:29.623Z,13.03
2019-04-04T23:33:00.478Z,15.30
2019-04-04T23:35:31.314Z,16.13
2019-04-04T23:38:02.191Z,12.87
2019-04-04T23:40:33.397Z,17.93
2019-04-04T23:43:04.226Z,16.07
2019-04-04T23:45:35.051Z,17.53
2019-04-04T23:48:06.244Z,14.17
2019-04-04T23:50:37.140Z,16.47
2019-04-04T23:53:08.101Z,16.67
2019-04-04T23:55:39.606Z,12.13
2019-04-04T23:58:10.461Z,14.50
